sensor_id;sensor_type;location;lat;lon;timestamp;P1;durP1;ratioP1;P2;durP2;ratioP2
15230;SDS011;32569;51.762;8.564;2023-06-19T00:00:29;7.93;;;7.23;;
15230;SDS011;32569;51.762;8.564;2023-06-19T00:02:56;8.10;;;7.40;;
15230;SDS011;32569;51.762;8.564;2023-06-19T00:05:23;8.40;;;7.60;;
15230;SDS011;32569;51.762;8.564;2023-06-19T00:07:50;7.97;;;7.33;;
15230;SDS011;32569;51.762;8.564;2023-06-19T00:10:16;8.30;;;7.60;;
15230;SDS011;32569;51.762;8.564;2023-06-19T00:12:43;9.77;;;7.70;;
15230;SDS011;32569;51.762;8.564;2023-06-19T00:15:12;8.50;;;7.80;;
15230;SDS011;32569;51.762;8.564;2023-06-19T00:17:39;7.63;;;7.03;;
15230;SDS011;32569;51.762;8.564;2023-06-19T00:20:06;8.63;;;7.73;;
15230;SDS011;32569;51.762;8.564;2023-06-19T00:22:34;8.47;;;7.73;;
15230;SDS011;32569;51.762;8.564;2023-06-19T00:25:01;8.47;;;7.77;;
15230;SDS011;32569;51.762;8.564;2023-06-19T00:27:28;7.90;;;7.20;;
15230;SDS011;32569;51.762;8.564;2023-06-19T00:29:54;8.60;;;7.80;;
15230;SDS011;32569;51.762;8.564;2023-06-19T00:32:27;7.20;;;6.60;;
15230;SDS011;32569;51.762;8.564;2023-06-19T00:34:54;8.00;;;7.27;;
15230;SDS011;32569;51.762;8.564;2023-06-19T00:37:21;8.67;;;7.87;;
15230;SDS011;32569;51.762;8.564;2023-06-19T00:39:48;8.50;;;7.70;;
15230;SDS011;32569;51.762;8.564;2023-06-19T00:42:14;8.03;;;7.23;;
15230;SDS011;32569;51.762;8.564;2023-06-19T00:44:41;7.83;;;7.10;;
15230;SDS011;32569;51.762;8.564;2023-06-19T00:47:08;7.93;;;7.23;;
15230;SDS011;32569;51.762;8.564;2023-06-19T00:49:36;8.60;;;7.90;;
15230;SDS011;32569;51.762;8.564;2023-06-19T00:52:03;8.00;;;7.30;;
15230;SDS011;32569;51.762;8.564;2023-06-19T00:54:30;8.07;;;7.37;;
15230;SDS011;32569;51.762;8.564;2023-06-19T00:56:58;8.50;;;7.70;;
15230;SDS011;32569;51.762;8.564;2023-06-19T00:59:24;8.13;;;7.50;;
15230;SDS011;32569;51.762;8.564;2023-06-19T01:01:52;8.03;;;7.27;;
15230;SDS011;32569;51.762;8.564;2023-06-19T01:04:19;7.67;;;6.97;;
15230;SDS011;32569;51.762;8.564;2023-06-19T01:06:50;7.63;;;7.03;;
15230;SDS011;32569;51.762;8.564;2023-06-19T01:09:22;7.10;;;6.50;;
15230;SDS011;32569;51.762;8.564;2023-06-19T01:11:54;8.20;;;7.50;;
15230;SDS011;32569;51.762;8.564;2023-06-19T01:14:25;7.10;;;6.50;;
15230;SDS011;32569;51.762;8.564;2023-06-19T01:16:56;7.83;;;7.23;;
15230;SDS011;32569;51.762;8.564;2023-06-19T01:19:23;7.87;;;7.20;;
15230;SDS011;32569;51.762;8.564;2023-06-19T01:21:52;8.27;;;7.57;;
15230;SDS011;32569;51.762;8.564;2023-06-19T01:24:20;7.60;;;7.00;;
15230;SDS011;32569;51.762;8.564;2023-06-19T01:26:47;7.97;;;7.37;;
15230;SDS011;32569;51.762;8.564;2023-06-19T01:29:14;8.07;;;7.37;;
15230;SDS011;32569;51.762;8.564;2023-06-19T01:31:45;7.33;;;6.73;;
15230;SDS011;32569;51.762;8.564;2023-06-19T01:34:16;7.80;;;7.20;;
15230;SDS011;32569;51.762;8.564;2023-06-19T01:36:45;7.73;;;7.13;;
15230;SDS011;32569;51.762;8.564;2023-06-19T01:39:14;7.77;;;7.07;;
15230;SDS011;32569;51.762;8.564;2023-06-19T01:41:42;7.93;;;7.07;;
15230;SDS011;32569;51.762;8.564;2023-06-19T01:44:10;7.53;;;6.93;;
15230;SDS011;32569;51.762;8.564;2023-06-19T01:46:37;8.20;;;7.50;;
15230;SDS011;32569;51.762;8.564;2023-06-19T01:49:05;7.80;;;7.13;;
15230;SDS011;32569;51.762;8.564;2023-06-19T01:51:33;8.23;;;7.33;;
15230;SDS011;32569;51.762;8.564;2023-06-19T01:54:00;7.93;;;7.13;;
15230;SDS011;32569;51.762;8.564;2023-06-19T01:56:28;7.53;;;6.87;;
15230;SDS011;32569;51.762;8.564;2023-06-19T01:58:56;7.50;;;6.90;;
15230;SDS011;32569;51.762;8.564;2023-06-19T02:01:22;9.27;;;7.03;;
15230;SDS011;32569;51.762;8.564;2023-06-19T02:03:49;8.30;;;7.60;;
15230;SDS011;32569;51.762;8.564;2023-06-19T02:06:16;8.37;;;7.77;;
15230;SDS011;32569;51.762;8.564;2023-06-19T02:08:42;7.80;;;7.20;;
15230;SDS011;32569;51.762;8.564;2023-06-19T02:11:12;7.23;;;6.63;;
15230;SDS011;32569;51.762;8.564;2023-06-19T02:13:39;7.43;;;6.83;;
15230;SDS011;32569;51.762;8.564;2023-06-19T02:16:06;7.60;;;7.00;;
15230;SDS011;32569;51.762;8.564;2023-06-19T02:18:33;8.40;;;7.60;;
15230;SDS011;32569;51.762;8.564;2023-06-19T02:21:00;8.13;;;7.37;;
15230;SDS011;32569;51.762;8.564;2023-06-19T02:23:26;7.80;;;7.20;;
15230;SDS011;32569;51.762;8.564;2023-06-19T02:25:53;7.70;;;7.07;;
15230;SDS011;32569;51.762;8.564;2023-06-19T02:28:19;8.73;;;7.87;;
15230;SDS011;32569;51.762;8.564;2023-06-19T02:30:46;8.27;;;7.60;;
15230;SDS011;32569;51.762;8.564;2023-06-19T02:33:14;7.97;;;7.27;;
15230;SDS011;32569;51.762;8.564;2023-06-19T02:35:41;7.90;;;7.30;;
15230;SDS011;32569;51.762;8.564;2023-06-19T02:38:09;8.20;;;7.10;;
15230;SDS011;32569;51.762;8.564;2023-06-19T02:40:36;8.10;;;7.40;;
15230;SDS011;32569;51.762;8.564;2023-06-19T02:43:03;10.10;;;7.63;;
15230;SDS011;32569;51.762;8.564;2023-06-19T02:45:29;7.73;;;6.93;;
15230;SDS011;32569;51.762;8.564;2023-06-19T02:47:56;8.30;;;7.60;;
15230;SDS011;32569;51.762;8.564;2023-06-19T02:50:24;8.30;;;7.70;;
15230;SDS011;32569;51.762;8.564;2023-06-19T02:52:50;9.10;;;8.03;;
15230;SDS011;32569;51.762;8.564;2023-06-19T02:55:17;7.97;;;7.37;;
15230;SDS011;32569;51.762;8.564;2023-06-19T02:57:43;8.33;;;7.53;;
15230;SDS011;32569;51.762;8.564;2023-06-19T03:00:11;7.23;;;6.63;;
15230;SDS011;32569;51.762;8.564;2023-06-19T03:02:38;7.80;;;7.10;;
15230;SDS011;32569;51.762;8.564;2023-06-19T03:05:08;8.43;;;7.70;;
15230;SDS011;32569;51.762;8.564;2023-06-19T03:07:36;7.90;;;7.20;;
15230;SDS011;32569;51.762;8.564;2023-06-19T03:10:03;7.53;;;6.83;;
15230;SDS011;32569;51.762;8.564;2023-06-19T03:12:31;8.27;;;7.47;;
15230;SDS011;32569;51.762;8.564;2023-06-19T03:14:57;8.53;;;7.77;;
15230;SDS011;32569;51.762;8.564;2023-06-19T03:17:24;8.23;;;7.53;;
15230;SDS011;32569;51.762;8.564;2023-06-19T03:19:50;9.53;;;7.70;;
15230;SDS011;32569;51.762;8.564;2023-06-19T03:22:17;8.43;;;7.67;;
15230;SDS011;32569;51.762;8.564;2023-06-19T03:24:46;8.60;;;7.80;;
15230;SDS011;32569;51.762;8.564;2023-06-19T03:27:14;8.40;;;7.70;;
15230;SDS011;32569;51.762;8.564;2023-06-19T03:29:40;8.20;;;7.40;;
15230;SDS011;32569;51.762;8.564;2023-06-19T03:32:07;9.87;;;8.10;;
15230;SDS011;32569;51.762;8.564;2023-06-19T03:34:33;8.47;;;7.63;;
15230;SDS011;32569;51.762;8.564;2023-06-19T03:37:00;9.40;;;8.47;;
15230;SDS011;32569;51.762;8.564;2023-06-19T03:39:27;9.43;;;7.60;;
15230;SDS011;32569;51.762;8.564;2023-06-19T03:41:55;10.37;;;7.80;;
15230;SDS011;32569;51.762;8.564;2023-06-19T03:44:24;8.50;;;7.30;;
15230;SDS011;32569;51.762;8.564;2023-06-19T03:46:51;9.03;;;7.63;;
15230;SDS011;32569;51.762;8.564;2023-06-19T03:49:17;8.23;;;7.53;;
15230;SDS011;32569;51.762;8.564;2023-06-19T03:51:44;9.10;;;7.57;;
15230;SDS011;32569;51.762;8.564;2023-06-19T03:54:11;9.80;;;7.67;;
15230;SDS011;32569;51.762;8.564;2023-06-19T03:56:37;10.00;;;7.20;;
15230;SDS011;32569;51.762;8.564;2023-06-19T03:59:05;8.37;;;7.70;;
15230;SDS011;32569;51.762;8.564;2023-06-19T04:01:35;9.20;;;7.93;;
15230;SDS011;32569;51.762;8.564;2023-06-19T04:04:02;8.50;;;7.80;;
15230;SDS011;32569;51.762;8.564;2023-06-19T04:06:28;8.77;;;8.07;;
15230;SDS011;32569;51.762;8.564;2023-06-19T04:08:55;7.83;;;7.13;;
15230;SDS011;32569;51.762;8.564;2023-06-19T04:11:22;8.80;;;8.00;;
15230;SDS011;32569;51.762;8.564;2023-06-19T04:13:48;8.73;;;8.00;;
15230;SDS011;32569;51.762;8.564;2023-06-19T04:16:16;8.50;;;7.80;;
15230;SDS011;32569;51.762;8.564;2023-06-19T04:18:43;8.13;;;7.33;;
15230;SDS011;32569;51.762;8.564;2023-06-19T04:21:09;8.60;;;7.80;;
15230;SDS011;32569;51.762;8.564;2023-06-19T04:23:36;8.50;;;7.60;;
15230;SDS011;32569;51.762;8.564;2023-06-19T04:26:03;8.77;;;7.83;;
15230;SDS011;32569;51.762;8.564;2023-06-19T04:28:29;8.70;;;7.90;;
15230;SDS011;32569;51.762;8.564;2023-06-19T04:30:56;8.30;;;7.60;;
15230;SDS011;32569;51.762;8.564;2023-06-19T04:33:27;8.27;;;7.47;;
15230;SDS011;32569;51.762;8.564;2023-06-19T04:35:54;8.43;;;7.57;;
15230;SDS011;32569;51.762;8.564;2023-06-19T04:38:21;8.37;;;7.40;;
15230;SDS011;32569;51.762;8.564;2023-06-19T04:40:49;9.03;;;7.67;;
15230;SDS011;32569;51.762;8.564;2023-06-19T04:43:15;8.30;;;7.53;;
15230;SDS011;32569;51.762;8.564;2023-06-19T04:45:42;8.03;;;7.33;;
15230;SDS011;32569;51.762;8.564;2023-06-19T04:48:09;7.80;;;7.20;;
15230;SDS011;32569;51.762;8.564;2023-06-19T04:50:37;8.43;;;7.63;;
15230;SDS011;32569;51.762;8.564;2023-06-19T04:53:04;8.87;;;7.97;;
15230;SDS011;32569;51.762;8.564;2023-06-19T04:55:34;7.80;;;7.10;;
15230;SDS011;32569;51.762;8.564;2023-06-19T04:58:04;7.77;;;7.07;;
15230;SDS011;32569;51.762;8.564;2023-06-19T05:00:30;8.30;;;7.50;;
15230;SDS011;32569;51.762;8.564;2023-06-19T05:02:57;8.27;;;7.57;;
15230;SDS011;32569;51.762;8.564;2023-06-19T05:05:25;8.03;;;7.23;;
15230;SDS011;32569;51.762;8.564;2023-06-19T05:07:53;7.60;;;7.00;;
15230;SDS011;32569;51.762;8.564;2023-06-19T05:10:20;8.03;;;7.33;;
15230;SDS011;32569;51.762;8.564;2023-06-19T05:12:47;7.97;;;7.17;;
15230;SDS011;32569;51.762;8.564;2023-06-19T05:15:13;7.07;;;6.37;;
15230;SDS011;32569;51.762;8.564;2023-06-19T05:17:40;7.70;;;7.00;;
15230;SDS011;32569;51.762;8.564;2023-06-19T05:20:07;7.90;;;7.10;;
15230;SDS011;32569;51.762;8.564;2023-06-19T05:22:34;7.40;;;6.70;;
15230;SDS011;32569;51.762;8.564;2023-06-19T05:25:03;7.70;;;6.90;;
15230;SDS011;32569;51.762;8.564;2023-06-19T05:27:30;7.70;;;7.00;;
15230;SDS011;32569;51.762;8.564;2023-06-19T05:29:58;7.50;;;6.80;;
15230;SDS011;32569;51.762;8.564;2023-06-19T05:32:24;7.33;;;6.73;;
15230;SDS011;32569;51.762;8.564;2023-06-19T05:34:51;7.50;;;6.80;;
15230;SDS011;32569;51.762;8.564;2023-06-19T05:37:17;7.00;;;6.40;;
15230;SDS011;32569;51.762;8.564;2023-06-19T05:39:44;7.17;;;6.47;;
15230;SDS011;32569;51.762;8.564;2023-06-19T05:42:12;7.33;;;6.27;;
15230;SDS011;32569;51.762;8.564;2023-06-19T05:44:39;6.57;;;5.97;;
15230;SDS011;32569;51.762;8.564;2023-06-19T05:47:06;6.63;;;6.03;;
15230;SDS011;32569;51.762;8.564;2023-06-19T05:49:32;6.45;;;5.85;;
15230;SDS011;32569;51.762;8.564;2023-06-19T05:51:59;5.80;;;5.30;;
15230;SDS011;32569;51.762;8.564;2023-06-19T05:54:26;5.70;;;5.20;;
15230;SDS011;32569;51.762;8.564;2023-06-19T05:56:52;4.87;;;4.47;;
15230;SDS011;32569;51.762;8.564;2023-06-19T05:59:20;5.20;;;4.70;;
15230;SDS011;32569;51.762;8.564;2023-06-19T06:01:47;5.27;;;4.83;;
15230;SDS011;32569;51.762;8.564;2023-06-19T06:04:15;5.17;;;4.77;;
15230;SDS011;32569;51.762;8.564;2023-06-19T06:06:42;5.77;;;4.90;;
15230;SDS011;32569;51.762;8.564;2023-06-19T06:09:08;7.67;;;4.67;;
15230;SDS011;32569;51.762;8.564;2023-06-19T06:11:37;4.88;;;4.40;;
15230;SDS011;32569;51.762;8.564;2023-06-19T06:14:03;4.63;;;4.22;;
15230;SDS011;32569;51.762;8.564;2023-06-19T06:16:31;5.07;;;4.68;;
15230;SDS011;32569;51.762;8.564;2023-06-19T06:18:58;5.23;;;4.30;;
15230;SDS011;32569;51.762;8.564;2023-06-19T06:21:24;4.83;;;4.43;;
15230;SDS011;32569;51.762;8.564;2023-06-19T06:23:51;5.28;;;4.55;;
15230;SDS011;32569;51.762;8.564;2023-06-19T06:26:19;4.63;;;3.87;;
15230;SDS011;32569;51.762;8.564;2023-06-19T06:28:46;4.37;;;4.07;;
15230;SDS011;32569;51.762;8.564;2023-06-19T06:31:13;4.30;;;4.00;;
15230;SDS011;32569;51.762;8.564;2023-06-19T06:33:41;7.47;;;4.20;;
15230;SDS011;32569;51.762;8.564;2023-06-19T06:36:07;6.13;;;4.30;;
15230;SDS011;32569;51.762;8.564;2023-06-19T06:38:34;4.93;;;4.43;;
15230;SDS011;32569;51.762;8.564;2023-06-19T06:41:00;4.22;;;3.85;;
15230;SDS011;32569;51.762;8.564;2023-06-19T06:43:27;4.68;;;4.03;;
15230;SDS011;32569;51.762;8.564;2023-06-19T06:45:54;5.23;;;4.73;;
15230;SDS011;32569;51.762;8.564;2023-06-19T06:48:20;5.40;;;3.97;;
15230;SDS011;32569;51.762;8.564;2023-06-19T06:50:51;4.40;;;4.00;;
15230;SDS011;32569;51.762;8.564;2023-06-19T06:53:24;5.10;;;4.53;;
15230;SDS011;32569;51.762;8.564;2023-06-19T06:55:50;5.17;;;4.00;;
15230;SDS011;32569;51.762;8.564;2023-06-19T06:58:17;5.07;;;4.67;;
15230;SDS011;32569;51.762;8.564;2023-06-19T07:00:44;4.43;;;4.13;;
15230;SDS011;32569;51.762;8.564;2023-06-19T07:03:10;5.37;;;4.20;;
15230;SDS011;32569;51.762;8.564;2023-06-19T07:05:38;5.20;;;4.80;;
15230;SDS011;32569;51.762;8.564;2023-06-19T07:08:06;4.47;;;4.07;;
15230;SDS011;32569;51.762;8.564;2023-06-19T07:10:32;4.67;;;4.20;;
15230;SDS011;32569;51.762;8.564;2023-06-19T07:12:59;9.10;;;4.20;;
15230;SDS011;32569;51.762;8.564;2023-06-19T07:15:26;4.57;;;4.10;;
15230;SDS011;32569;51.762;8.564;2023-06-19T07:17:52;5.50;;;5.00;;
15230;SDS011;32569;51.762;8.564;2023-06-19T07:20:19;8.43;;;4.97;;
15230;SDS011;32569;51.762;8.564;2023-06-19T07:22:50;4.17;;;3.80;;
15230;SDS011;32569;51.762;8.564;2023-06-19T07:25:22;4.83;;;4.30;;
15230;SDS011;32569;51.762;8.564;2023-06-19T07:27:50;5.73;;;4.10;;
15230;SDS011;32569;51.762;8.564;2023-06-19T07:30:20;4.27;;;3.97;;
15230;SDS011;32569;51.762;8.564;2023-06-19T07:32:47;5.23;;;3.93;;
15230;SDS011;32569;51.762;8.564;2023-06-19T07:35:13;5.57;;;3.97;;
15230;SDS011;32569;51.762;8.564;2023-06-19T07:37:40;4.17;;;3.77;;
15230;SDS011;32569;51.762;8.564;2023-06-19T07:40:07;4.10;;;3.47;;
15230;SDS011;32569;51.762;8.564;2023-06-19T07:42:36;3.50;;;3.20;;
15230;SDS011;32569;51.762;8.564;2023-06-19T07:45:03;6.87;;;3.10;;
15230;SDS011;32569;51.762;8.564;2023-06-19T07:47:30;3.53;;;2.90;;
15230;SDS011;32569;51.762;8.564;2023-06-19T07:49:59;3.40;;;3.00;;
15230;SDS011;32569;51.762;8.564;2023-06-19T07:52:26;4.23;;;2.73;;
15230;SDS011;32569;51.762;8.564;2023-06-19T07:54:53;2.90;;;2.60;;
15230;SDS011;32569;51.762;8.564;2023-06-19T07:57:20;3.83;;;2.40;;
15230;SDS011;32569;51.762;8.564;2023-06-19T07:59:50;2.87;;;2.67;;
15230;SDS011;32569;51.762;8.564;2023-06-19T08:02:17;3.13;;;2.40;;
15230;SDS011;32569;51.762;8.564;2023-06-19T08:04:44;3.43;;;2.70;;
15230;SDS011;32569;51.762;8.564;2023-06-19T08:07:11;2.50;;;2.30;;
15230;SDS011;32569;51.762;8.564;2023-06-19T08:09:38;3.77;;;2.50;;
15230;SDS011;32569;51.762;8.564;2023-06-19T08:12:07;2.83;;;2.63;;
15230;SDS011;32569;51.762;8.564;2023-06-19T08:14:34;3.67;;;2.73;;
15230;SDS011;32569;51.762;8.564;2023-06-19T08:17:02;2.60;;;2.37;;
15230;SDS011;32569;51.762;8.564;2023-06-19T08:19:29;2.83;;;2.60;;
15230;SDS011;32569;51.762;8.564;2023-06-19T08:21:55;4.07;;;2.97;;
15230;SDS011;32569;51.762;8.564;2023-06-19T08:24:22;2.93;;;2.73;;
15230;SDS011;32569;51.762;8.564;2023-06-19T08:26:49;4.20;;;3.00;;
15230;SDS011;32569;51.762;8.564;2023-06-19T08:29:17;2.90;;;2.53;;
15230;SDS011;32569;51.762;8.564;2023-06-19T08:31:44;3.80;;;2.50;;
15230;SDS011;32569;51.762;8.564;2023-06-19T08:34:12;2.53;;;2.33;;
15230;SDS011;32569;51.762;8.564;2023-06-19T08:36:38;2.67;;;2.20;;
15230;SDS011;32569;51.762;8.564;2023-06-19T08:39:05;2.97;;;2.20;;
15230;SDS011;32569;51.762;8.564;2023-06-19T08:41:33;2.30;;;2.20;;
15230;SDS011;32569;51.762;8.564;2023-06-19T08:44:00;2.57;;;2.37;;
15230;SDS011;32569;51.762;8.564;2023-06-19T08:46:28;2.07;;;1.90;;
15230;SDS011;32569;51.762;8.564;2023-06-19T08:48:55;2.67;;;2.27;;
15230;SDS011;32569;51.762;8.564;2023-06-19T08:51:23;2.03;;;1.87;;
15230;SDS011;32569;51.762;8.564;2023-06-19T08:53:53;2.83;;;1.90;;
15230;SDS011;32569;51.762;8.564;2023-06-19T08:56:21;5.03;;;2.27;;
15230;SDS011;32569;51.762;8.564;2023-06-19T08:58:48;2.03;;;1.87;;
15230;SDS011;32569;51.762;8.564;2023-06-19T09:01:16;2.53;;;2.20;;
15230;SDS011;32569;51.762;8.564;2023-06-19T09:03:44;3.27;;;2.13;;
15230;SDS011;32569;51.762;8.564;2023-06-19T09:06:13;2.50;;;2.30;;
15230;SDS011;32569;51.762;8.564;2023-06-19T09:08:42;2.77;;;2.30;;
15230;SDS011;32569;51.762;8.564;2023-06-19T09:11:09;2.43;;;2.20;;
15230;SDS011;32569;51.762;8.564;2023-06-19T09:13:37;2.20;;;2.10;;
15230;SDS011;32569;51.762;8.564;2023-06-19T09:16:04;2.92;;;2.42;;
15230;SDS011;32569;51.762;8.564;2023-06-19T09:18:41;2.50;;;2.23;;
15230;SDS011;32569;51.762;8.564;2023-06-19T09:21:14;2.87;;;1.90;;
15230;SDS011;32569;51.762;8.564;2023-06-19T09:23:42;2.30;;;2.10;;
15230;SDS011;32569;51.762;8.564;2023-06-19T09:26:09;2.30;;;1.80;;
15230;SDS011;32569;51.762;8.564;2023-06-19T09:28:39;4.23;;;2.27;;
15230;SDS011;32569;51.762;8.564;2023-06-19T09:31:07;2.27;;;2.13;;
15230;SDS011;32569;51.762;8.564;2023-06-19T09:33:34;2.67;;;2.47;;
15230;SDS011;32569;51.762;8.564;2023-06-19T09:36:01;3.47;;;2.27;;
15230;SDS011;32569;51.762;8.564;2023-06-19T09:38:30;2.40;;;2.20;;
15230;SDS011;32569;51.762;8.564;2023-06-19T09:41:01;2.40;;;2.20;;
15230;SDS011;32569;51.762;8.564;2023-06-19T09:43:30;2.83;;;2.10;;
15230;SDS011;32569;51.762;8.564;2023-06-19T09:46:02;2.63;;;2.30;;
15230;SDS011;32569;51.762;8.564;2023-06-19T09:48:30;2.50;;;2.30;;
15230;SDS011;32569;51.762;8.564;2023-06-19T09:51:00;2.77;;;2.57;;
15230;SDS011;32569;51.762;8.564;2023-06-19T09:53:28;2.78;;;2.58;;
15230;SDS011;32569;51.762;8.564;2023-06-19T09:55:56;4.35;;;2.40;;
15230;SDS011;32569;51.762;8.564;2023-06-19T09:58:24;2.87;;;2.33;;
15230;SDS011;32569;51.762;8.564;2023-06-19T10:00:52;3.28;;;2.60;;
15230;SDS011;32569;51.762;8.564;2023-06-19T10:03:20;3.33;;;2.88;;
15230;SDS011;32569;51.762;8.564;2023-06-19T10:05:56;2.80;;;2.38;;
15230;SDS011;32569;51.762;8.564;2023-06-19T10:08:28;3.42;;;2.40;;
15230;SDS011;32569;51.762;8.564;2023-06-19T10:10:56;3.08;;;2.25;;
15230;SDS011;32569;51.762;8.564;2023-06-19T10:13:30;2.40;;;2.20;;
15230;SDS011;32569;51.762;8.564;2023-06-19T10:15:58;2.67;;;2.35;;
15230;SDS011;32569;51.762;8.564;2023-06-19T10:18:25;2.97;;;2.50;;
15230;SDS011;32569;51.762;8.564;2023-06-19T10:20:53;2.42;;;2.22;;
15230;SDS011;32569;51.762;8.564;2023-06-19T10:23:21;2.72;;;2.50;;
15230;SDS011;32569;51.762;8.564;2023-06-19T10:25:54;2.57;;;2.37;;
15230;SDS011;32569;51.762;8.564;2023-06-19T10:28:22;3.47;;;2.70;;
15230;SDS011;32569;51.762;8.564;2023-06-19T10:30:51;2.23;;;2.03;;
15230;SDS011;32569;51.762;8.564;2023-06-19T10:33:19;3.40;;;2.40;;
15230;SDS011;32569;51.762;8.564;2023-06-19T10:35:46;2.90;;;2.30;;
15230;SDS011;32569;51.762;8.564;2023-06-19T10:38:14;2.80;;;2.60;;
15230;SDS011;32569;51.762;8.564;2023-06-19T10:40:41;2.87;;;2.60;;
15230;SDS011;32569;51.762;8.564;2023-06-19T10:43:08;2.42;;;2.28;;
15230;SDS011;32569;51.762;8.564;2023-06-19T10:45:36;2.70;;;2.50;;
15230;SDS011;32569;51.762;8.564;2023-06-19T10:48:03;2.00;;;1.90;;
15230;SDS011;32569;51.762;8.564;2023-06-19T10:50:33;1.90;;;1.77;;
15230;SDS011;32569;51.762;8.564;2023-06-19T10:53:01;2.30;;;2.10;;
15230;SDS011;32569;51.762;8.564;2023-06-19T10:55:28;1.92;;;1.83;;
15230;SDS011;32569;51.762;8.564;2023-06-19T10:57:55;2.13;;;1.92;;
15230;SDS011;32569;51.762;8.564;2023-06-19T11:00:22;1.80;;;1.70;;
15230;SDS011;32569;51.762;8.564;2023-06-19T11:02:50;2.25;;;1.90;;
15230;SDS011;32569;51.762;8.564;2023-06-19T11:05:19;2.95;;;1.98;;
15230;SDS011;32569;51.762;8.564;2023-06-19T11:07:50;1.90;;;1.80;;
15230;SDS011;32569;51.762;8.564;2023-06-19T11:10:21;2.03;;;1.90;;
15230;SDS011;32569;51.762;8.564;2023-06-19T11:12:48;2.67;;;1.75;;
15230;SDS011;32569;51.762;8.564;2023-06-19T11:15:15;2.05;;;1.85;;
15230;SDS011;32569;51.762;8.564;2023-06-19T11:17:42;2.20;;;1.98;;
15230;SDS011;32569;51.762;8.564;2023-06-19T11:20:11;5.22;;;2.17;;
15230;SDS011;32569;51.762;8.564;2023-06-19T11:22:39;2.10;;;1.70;;
15230;SDS011;32569;51.762;8.564;2023-06-19T11:25:06;2.47;;;2.10;;
15230;SDS011;32569;51.762;8.564;2023-06-19T11:27:36;2.67;;;1.85;;
15230;SDS011;32569;51.762;8.564;2023-06-19T11:30:04;2.10;;;2.00;;
15230;SDS011;32569;51.762;8.564;2023-06-19T11:32:33;2.20;;;2.10;;
15230;SDS011;32569;51.762;8.564;2023-06-19T11:35:05;1.77;;;1.67;;
15230;SDS011;32569;51.762;8.564;2023-06-19T11:37:35;2.20;;;1.67;;
15230;SDS011;32569;51.762;8.564;2023-06-19T11:40:02;2.25;;;1.88;;
15230;SDS011;32569;51.762;8.564;2023-06-19T11:42:43;2.33;;;1.90;;
15230;SDS011;32569;51.762;8.564;2023-06-19T11:45:11;1.80;;;1.70;;
15230;SDS011;32569;51.762;8.564;2023-06-19T11:47:37;2.10;;;1.77;;
15230;SDS011;32569;51.762;8.564;2023-06-19T11:50:05;2.25;;;2.05;;
15230;SDS011;32569;51.762;8.564;2023-06-19T11:52:32;3.20;;;2.10;;
15230;SDS011;32569;51.762;8.564;2023-06-19T11:55:00;1.93;;;1.83;;
15230;SDS011;32569;51.762;8.564;2023-06-19T11:57:27;3.08;;;2.10;;
15230;SDS011;32569;51.762;8.564;2023-06-19T11:59:54;2.47;;;2.28;;
15230;SDS011;32569;51.762;8.564;2023-06-19T12:02:21;2.10;;;2.00;;
15230;SDS011;32569;51.762;8.564;2023-06-19T12:04:47;3.50;;;2.40;;
15230;SDS011;32569;51.762;8.564;2023-06-19T12:07:14;2.77;;;2.57;;
15230;SDS011;32569;51.762;8.564;2023-06-19T12:09:41;2.80;;;2.60;;
15230;SDS011;32569;51.762;8.564;2023-06-19T12:12:10;2.85;;;2.53;;
15230;SDS011;32569;51.762;8.564;2023-06-19T12:14:36;5.50;;;3.25;;
15230;SDS011;32569;51.762;8.564;2023-06-19T12:17:04;2.60;;;2.40;;
15230;SDS011;32569;51.762;8.564;2023-06-19T12:19:31;5.07;;;2.95;;
15230;SDS011;32569;51.762;8.564;2023-06-19T12:21:57;3.00;;;2.80;;
15230;SDS011;32569;51.762;8.564;2023-06-19T12:24:25;3.33;;;3.13;;
15230;SDS011;32569;51.762;8.564;2023-06-19T12:26:51;2.80;;;2.60;;
15230;SDS011;32569;51.762;8.564;2023-06-19T12:29:19;4.38;;;2.92;;
15230;SDS011;32569;51.762;8.564;2023-06-19T12:31:46;2.83;;;2.60;;
15230;SDS011;32569;51.762;8.564;2023-06-19T12:34:13;2.92;;;2.70;;
15230;SDS011;32569;51.762;8.564;2023-06-19T12:36:39;2.88;;;2.67;;
15230;SDS011;32569;51.762;8.564;2023-06-19T12:39:07;3.50;;;3.20;;
15230;SDS011;32569;51.762;8.564;2023-06-19T12:41:40;3.30;;;3.00;;
15230;SDS011;32569;51.762;8.564;2023-06-19T12:44:06;6.05;;;2.75;;
15230;SDS011;32569;51.762;8.564;2023-06-19T12:46:34;2.97;;;2.67;;
15230;SDS011;32569;51.762;8.564;2023-06-19T12:49:01;3.22;;;2.85;;
15230;SDS011;32569;51.762;8.564;2023-06-19T12:51:28;3.95;;;3.20;;
15230;SDS011;32569;51.762;8.564;2023-06-19T12:53:55;3.10;;;2.90;;
15230;SDS011;32569;51.762;8.564;2023-06-19T12:56:21;3.50;;;3.13;;
15230;SDS011;32569;51.762;8.564;2023-06-19T12:58:48;3.30;;;3.00;;
15230;SDS011;32569;51.762;8.564;2023-06-19T13:01:15;2.97;;;2.72;;
15230;SDS011;32569;51.762;8.564;2023-06-19T13:03:43;3.70;;;3.30;;
15230;SDS011;32569;51.762;8.564;2023-06-19T13:06:09;2.83;;;2.63;;
15230;SDS011;32569;51.762;8.564;2023-06-19T13:08:36;3.15;;;2.90;;
15230;SDS011;32569;51.762;8.564;2023-06-19T13:11:02;3.05;;;2.75;;
15230;SDS011;32569;51.762;8.564;2023-06-19T13:13:29;3.47;;;3.15;;
15230;SDS011;32569;51.762;8.564;2023-06-19T13:15:56;3.30;;;3.10;;
15230;SDS011;32569;51.762;8.564;2023-06-19T13:18:22;3.30;;;3.08;;
15230;SDS011;32569;51.762;8.564;2023-06-19T13:20:50;3.50;;;3.20;;
15230;SDS011;32569;51.762;8.564;2023-06-19T13:23:17;3.70;;;3.40;;
15230;SDS011;32569;51.762;8.564;2023-06-19T13:25:43;4.57;;;3.05;;
15230;SDS011;32569;51.762;8.564;2023-06-19T13:28:10;3.33;;;3.10;;
15230;SDS011;32569;51.762;8.564;2023-06-19T13:30:37;3.50;;;3.00;;
15230;SDS011;32569;51.762;8.564;2023-06-19T13:33:03;3.50;;;2.95;;
15230;SDS011;32569;51.762;8.564;2023-06-19T13:35:30;3.10;;;2.90;;
15230;SDS011;32569;51.762;8.564;2023-06-19T13:37:58;5.03;;;3.10;;
15230;SDS011;32569;51.762;8.564;2023-06-19T13:40:25;3.67;;;3.38;;
15230;SDS011;32569;51.762;8.564;2023-06-19T13:42:51;3.60;;;3.30;;
15230;SDS011;32569;51.762;8.564;2023-06-19T13:45:18;3.28;;;3.08;;
15230;SDS011;32569;51.762;8.564;2023-06-19T13:47:44;3.20;;;3.00;;
15230;SDS011;32569;51.762;8.564;2023-06-19T13:50:11;3.35;;;3.05;;
15230;SDS011;32569;51.762;8.564;2023-06-19T13:52:42;2.63;;;2.42;;
15230;SDS011;32569;51.762;8.564;2023-06-19T13:55:11;5.30;;;3.25;;
15230;SDS011;32569;51.762;8.564;2023-06-19T13:57:38;4.65;;;2.75;;
15230;SDS011;32569;51.762;8.564;2023-06-19T14:00:05;3.58;;;2.72;;
15230;SDS011;32569;51.762;8.564;2023-06-19T14:02:35;6.10;;;2.72;;
15230;SDS011;32569;51.762;8.564;2023-06-19T14:05:02;5.03;;;3.05;;
15230;SDS011;32569;51.762;8.564;2023-06-19T14:07:28;3.67;;;2.80;;
15230;SDS011;32569;51.762;8.564;2023-06-19T14:09:55;3.80;;;3.10;;
15230;SDS011;32569;51.762;8.564;2023-06-19T14:12:23;3.28;;;2.78;;
15230;SDS011;32569;51.762;8.564;2023-06-19T14:14:50;3.30;;;3.00;;
15230;SDS011;32569;51.762;8.564;2023-06-19T14:17:20;3.55;;;2.95;;
15230;SDS011;32569;51.762;8.564;2023-06-19T14:19:49;3.45;;;3.20;;
15230;SDS011;32569;51.762;8.564;2023-06-19T14:22:16;3.28;;;3.03;;
15230;SDS011;32569;51.762;8.564;2023-06-19T14:24:43;4.55;;;3.33;;
15230;SDS011;32569;51.762;8.564;2023-06-19T14:27:10;3.17;;;2.88;;
15230;SDS011;32569;51.762;8.564;2023-06-19T14:29:39;4.43;;;3.10;;
15230;SDS011;32569;51.762;8.564;2023-06-19T14:32:05;4.45;;;3.17;;
15230;SDS011;32569;51.762;8.564;2023-06-19T14:34:32;3.22;;;2.97;;
15230;SDS011;32569;51.762;8.564;2023-06-19T14:36:59;3.33;;;3.03;;
15230;SDS011;32569;51.762;8.564;2023-06-19T14:39:25;3.95;;;3.42;;
15230;SDS011;32569;51.762;8.564;2023-06-19T14:41:52;3.55;;;2.85;;
15230;SDS011;32569;51.762;8.564;2023-06-19T14:44:18;3.90;;;3.47;;
15230;SDS011;32569;51.762;8.564;2023-06-19T14:46:47;4.80;;;2.83;;
15230;SDS011;32569;51.762;8.564;2023-06-19T14:49:13;3.85;;;3.25;;